sensor_id;sensor_type;location;lat;lon;timestamp;P1;durP1;ratioP1;P2;durP2;ratioP2
70970;SDS011;58632;51.718;19.446;2022-07-24T00:01:37;11.83;;;10.63;;
70970;SDS011;58632;51.718;19.446;2022-07-24T00:04:05;12.88;;;11.22;;
70970;SDS011;58632;51.718;19.446;2022-07-24T00:06:33;11.85;;;10.58;;
70970;SDS011;58632;51.718;19.446;2022-07-24T00:09:00;13.30;;;10.38;;
70970;SDS011;58632;51.718;19.446;2022-07-24T00:11:27;10.38;;;9.35;;
70970;SDS011;58632;51.718;19.446;2022-07-24T00:13:55;11.93;;;9.80;;
70970;SDS011;58632;51.718;19.446;2022-07-24T00:16:24;12.88;;;9.35;;
70970;SDS011;58632;51.718;19.446;2022-07-24T00:18:51;10.40;;;9.30;;
70970;SDS011;58632;51.718;19.446;2022-07-24T00:21:19;10.00;;;9.03;;
70970;SDS011;58632;51.718;19.446;2022-07-24T00:23:46;9.33;;;8.38;;
70970;SDS011;58632;51.718;19.446;2022-07-24T00:26:13;11.05;;;8.30;;
70970;SDS011;58632;51.718;19.446;2022-07-24T00:28:41;9.50;;;8.28;;
70970;SDS011;58632;51.718;19.446;2022-07-24T00:31:08;10.58;;;9.18;;
70970;SDS011;58632;51.718;19.446;2022-07-24T00:33:35;9.43;;;8.43;;
70970;SDS011;58632;51.718;19.446;2022-07-24T00:36:03;9.15;;;8.23;;
70970;SDS011;58632;51.718;19.446;2022-07-24T00:38:31;9.78;;;7.72;;
70970;SDS011;58632;51.718;19.446;2022-07-24T00:40:59;9.40;;;7.45;;
70970;SDS011;58632;51.718;19.446;2022-07-24T00:43:26;6.87;;;6.10;;
70970;SDS011;58632;51.718;19.446;2022-07-24T00:45:54;13.95;;;7.97;;
70970;SDS011;58632;51.718;19.446;2022-07-24T00:48:21;12.82;;;7.92;;
70970;SDS011;58632;51.718;19.446;2022-07-24T00:50:49;8.60;;;7.62;;
70970;SDS011;58632;51.718;19.446;2022-07-24T00:53:19;12.88;;;7.78;;
70970;SDS011;58632;51.718;19.446;2022-07-24T00:55:47;9.65;;;7.65;;
70970;SDS011;58632;51.718;19.446;2022-07-24T00:58:14;10.68;;;7.50;;
70970;SDS011;58632;51.718;19.446;2022-07-24T01:00:41;8.73;;;6.28;;
70970;SDS011;58632;51.718;19.446;2022-07-24T01:03:09;8.90;;;6.67;;
70970;SDS011;58632;51.718;19.446;2022-07-24T01:05:36;8.05;;;6.60;;
70970;SDS011;58632;51.718;19.446;2022-07-24T01:08:03;8.73;;;6.87;;
70970;SDS011;58632;51.718;19.446;2022-07-24T01:10:31;8.45;;;6.80;;
70970;SDS011;58632;51.718;19.446;2022-07-24T01:12:58;7.65;;;6.17;;
70970;SDS011;58632;51.718;19.446;2022-07-24T01:15:26;9.48;;;6.85;;
70970;SDS011;58632;51.718;19.446;2022-07-24T01:17:53;14.18;;;6.78;;
70970;SDS011;58632;51.718;19.446;2022-07-24T01:20:21;8.63;;;6.90;;
70970;SDS011;58632;51.718;19.446;2022-07-24T01:22:47;9.03;;;6.58;;
70970;SDS011;58632;51.718;19.446;2022-07-24T01:25:15;8.38;;;6.10;;
70970;SDS011;58632;51.718;19.446;2022-07-24T01:27:42;9.08;;;5.72;;
70970;SDS011;58632;51.718;19.446;2022-07-24T01:30:09;9.45;;;6.50;;
70970;SDS011;58632;51.718;19.446;2022-07-24T01:32:37;8.90;;;6.45;;
70970;SDS011;58632;51.718;19.446;2022-07-24T01:35:04;9.65;;;5.83;;
70970;SDS011;58632;51.718;19.446;2022-07-24T01:37:33;12.20;;;6.55;;
70970;SDS011;58632;51.718;19.446;2022-07-24T01:40:00;9.30;;;6.33;;
70970;SDS011;58632;51.718;19.446;2022-07-24T01:42:27;8.25;;;6.03;;
70970;SDS011;58632;51.718;19.446;2022-07-24T01:44:54;11.43;;;6.37;;
70970;SDS011;58632;51.718;19.446;2022-07-24T01:47:22;9.85;;;6.05;;
70970;SDS011;58632;51.718;19.446;2022-07-24T01:49:49;10.23;;;6.60;;
70970;SDS011;58632;51.718;19.446;2022-07-24T01:52:16;10.53;;;6.40;;
70970;SDS011;58632;51.718;19.446;2022-07-24T01:54:43;7.00;;;6.00;;
70970;SDS011;58632;51.718;19.446;2022-07-24T01:57:10;9.10;;;6.17;;
70970;SDS011;58632;51.718;19.446;2022-07-24T01:59:38;7.97;;;6.25;;
70970;SDS011;58632;51.718;19.446;2022-07-24T02:02:05;10.32;;;6.40;;
70970;SDS011;58632;51.718;19.446;2022-07-24T02:04:32;8.00;;;6.62;;
70970;SDS011;58632;51.718;19.446;2022-07-24T02:06:59;7.58;;;6.03;;
70970;SDS011;58632;51.718;19.446;2022-07-24T02:09:27;8.55;;;6.10;;
70970;SDS011;58632;51.718;19.446;2022-07-24T02:11:55;6.72;;;6.03;;
70970;SDS011;58632;51.718;19.446;2022-07-24T02:14:22;9.53;;;5.87;;
70970;SDS011;58632;51.718;19.446;2022-07-24T02:16:49;9.33;;;6.25;;
70970;SDS011;58632;51.718;19.446;2022-07-24T02:19:17;8.05;;;6.12;;
70970;SDS011;58632;51.718;19.446;2022-07-24T02:21:44;8.35;;;5.35;;
70970;SDS011;58632;51.718;19.446;2022-07-24T02:24:11;8.98;;;6.28;;
70970;SDS011;58632;51.718;19.446;2022-07-24T02:26:38;8.33;;;6.20;;
70970;SDS011;58632;51.718;19.446;2022-07-24T02:29:05;9.98;;;5.90;;
70970;SDS011;58632;51.718;19.446;2022-07-24T02:31:33;8.43;;;5.97;;
70970;SDS011;58632;51.718;19.446;2022-07-24T02:34:00;10.53;;;7.05;;
70970;SDS011;58632;51.718;19.446;2022-07-24T02:36:28;7.35;;;6.28;;
70970;SDS011;58632;51.718;19.446;2022-07-24T02:38:55;9.63;;;6.08;;
70970;SDS011;58632;51.718;19.446;2022-07-24T02:41:22;8.88;;;6.12;;
70970;SDS011;58632;51.718;19.446;2022-07-24T02:43:49;8.38;;;5.83;;
70970;SDS011;58632;51.718;19.446;2022-07-24T02:46:16;8.65;;;5.97;;
70970;SDS011;58632;51.718;19.446;2022-07-24T02:48:43;9.18;;;6.05;;
70970;SDS011;58632;51.718;19.446;2022-07-24T02:51:11;8.43;;;5.90;;
70970;SDS011;58632;51.718;19.446;2022-07-24T02:53:38;8.78;;;6.30;;
70970;SDS011;58632;51.718;19.446;2022-07-24T02:56:06;9.73;;;6.50;;
70970;SDS011;58632;51.718;19.446;2022-07-24T02:58:34;10.13;;;6.80;;
70970;SDS011;58632;51.718;19.446;2022-07-24T03:01:02;7.47;;;6.15;;
70970;SDS011;58632;51.718;19.446;2022-07-24T03:03:29;11.40;;;6.12;;
70970;SDS011;58632;51.718;19.446;2022-07-24T03:05:57;8.43;;;6.45;;
70970;SDS011;58632;51.718;19.446;2022-07-24T03:08:24;9.40;;;6.37;;
70970;SDS011;58632;51.718;19.446;2022-07-24T03:10:51;10.82;;;6.75;;
70970;SDS011;58632;51.718;19.446;2022-07-24T03:13:18;7.67;;;6.05;;
70970;SDS011;58632;51.718;19.446;2022-07-24T03:15:45;9.65;;;5.90;;
70970;SDS011;58632;51.718;19.446;2022-07-24T03:18:13;13.78;;;6.12;;
70970;SDS011;58632;51.718;19.446;2022-07-24T03:20:40;9.60;;;6.17;;
70970;SDS011;58632;51.718;19.446;2022-07-24T03:23:07;9.83;;;6.08;;
70970;SDS011;58632;51.718;19.446;2022-07-24T03:25:35;13.43;;;6.75;;
70970;SDS011;58632;51.718;19.446;2022-07-24T03:28:02;9.95;;;6.05;;
70970;SDS011;58632;51.718;19.446;2022-07-24T03:30:29;11.90;;;6.37;;
70970;SDS011;58632;51.718;19.446;2022-07-24T03:32:56;10.15;;;6.17;;
70970;SDS011;58632;51.718;19.446;2022-07-24T03:35:23;13.05;;;6.67;;
70970;SDS011;58632;51.718;19.446;2022-07-24T03:37:50;8.48;;;6.35;;
70970;SDS011;58632;51.718;19.446;2022-07-24T03:40:18;8.43;;;5.95;;
70970;SDS011;58632;51.718;19.446;2022-07-24T03:42:45;8.00;;;6.03;;
70970;SDS011;58632;51.718;19.446;2022-07-24T03:45:12;10.10;;;5.75;;
70970;SDS011;58632;51.718;19.446;2022-07-24T03:47:40;8.45;;;5.42;;
70970;SDS011;58632;51.718;19.446;2022-07-24T03:50:08;6.17;;;4.90;;
70970;SDS011;58632;51.718;19.446;2022-07-24T03:52:35;8.98;;;5.20;;
70970;SDS011;58632;51.718;19.446;2022-07-24T03:55:03;8.73;;;4.65;;
70970;SDS011;58632;51.718;19.446;2022-07-24T03:57:31;9.03;;;4.70;;
70970;SDS011;58632;51.718;19.446;2022-07-24T03:59:58;9.13;;;5.15;;
70970;SDS011;58632;51.718;19.446;2022-07-24T04:02:25;9.58;;;4.95;;
70970;SDS011;58632;51.718;19.446;2022-07-24T04:04:53;10.68;;;4.65;;
70970;SDS011;58632;51.718;19.446;2022-07-24T04:07:20;6.78;;;4.10;;
70970;SDS011;58632;51.718;19.446;2022-07-24T04:09:47;8.93;;;4.37;;
70970;SDS011;58632;51.718;19.446;2022-07-24T04:12:14;7.90;;;4.47;;
70970;SDS011;58632;51.718;19.446;2022-07-24T04:14:41;9.18;;;4.47;;
70970;SDS011;58632;51.718;19.446;2022-07-24T04:17:08;5.72;;;4.42;;
70970;SDS011;58632;51.718;19.446;2022-07-24T04:19:36;6.17;;;4.40;;
70970;SDS011;58632;51.718;19.446;2022-07-24T04:22:03;7.58;;;4.70;;
70970;SDS011;58632;51.718;19.446;2022-07-24T04:24:30;8.03;;;4.62;;
70970;SDS011;58632;51.718;19.446;2022-07-24T04:26:57;10.30;;;5.03;;
70970;SDS011;58632;51.718;19.446;2022-07-24T04:29:24;13.25;;;4.87;;
70970;SDS011;58632;51.718;19.446;2022-07-24T04:31:52;9.10;;;5.50;;
70970;SDS011;58632;51.718;19.446;2022-07-24T04:34:19;10.13;;;5.33;;
70970;SDS011;58632;51.718;19.446;2022-07-24T04:36:53;8.80;;;5.00;;
70970;SDS011;58632;51.718;19.446;2022-07-24T04:39:20;7.95;;;5.00;;
70970;SDS011;58632;51.718;19.446;2022-07-24T04:41:47;8.20;;;5.37;;
70970;SDS011;58632;51.718;19.446;2022-07-24T04:44:14;11.38;;;5.47;;
70970;SDS011;58632;51.718;19.446;2022-07-24T04:46:42;8.93;;;5.28;;
70970;SDS011;58632;51.718;19.446;2022-07-24T04:49:09;4.90;;;4.35;;
70970;SDS011;58632;51.718;19.446;2022-07-24T04:51:37;11.68;;;5.15;;
70970;SDS011;58632;51.718;19.446;2022-07-24T04:54:04;9.00;;;5.12;;
70970;SDS011;58632;51.718;19.446;2022-07-24T04:56:31;8.93;;;5.12;;
70970;SDS011;58632;51.718;19.446;2022-07-24T04:58:59;8.88;;;4.53;;
70970;SDS011;58632;51.718;19.446;2022-07-24T05:01:28;6.78;;;4.12;;
70970;SDS011;58632;51.718;19.446;2022-07-24T05:03:55;8.88;;;4.35;;
70970;SDS011;58632;51.718;19.446;2022-07-24T05:06:23;5.35;;;3.75;;
70970;SDS011;58632;51.718;19.446;2022-07-24T05:08:51;6.22;;;3.12;;
70970;SDS011;58632;51.718;19.446;2022-07-24T05:11:18;4.80;;;3.00;;
70970;SDS011;58632;51.718;19.446;2022-07-24T05:13:46;6.22;;;3.00;;
70970;SDS011;58632;51.718;19.446;2022-07-24T05:16:13;4.08;;;2.77;;
70970;SDS011;58632;51.718;19.446;2022-07-24T05:18:40;5.70;;;2.77;;
70970;SDS011;58632;51.718;19.446;2022-07-24T05:21:07;5.03;;;3.20;;
70970;SDS011;58632;51.718;19.446;2022-07-24T05:23:34;4.37;;;2.22;;
70970;SDS011;58632;51.718;19.446;2022-07-24T05:26:02;5.25;;;2.00;;
70970;SDS011;58632;51.718;19.446;2022-07-24T05:28:29;5.03;;;2.02;;
70970;SDS011;58632;51.718;19.446;2022-07-24T05:30:56;5.62;;;1.80;;
70970;SDS011;58632;51.718;19.446;2022-07-24T05:33:23;3.62;;;1.70;;
70970;SDS011;58632;51.718;19.446;2022-07-24T05:35:50;2.87;;;1.62;;
70970;SDS011;58632;51.718;19.446;2022-07-24T05:38:17;3.42;;;1.50;;
70970;SDS011;58632;51.718;19.446;2022-07-24T05:40:45;2.87;;;1.35;;
70970;SDS011;58632;51.718;19.446;2022-07-24T05:43:12;3.42;;;1.30;;
70970;SDS011;58632;51.718;19.446;2022-07-24T05:45:39;2.95;;;1.30;;
70970;SDS011;58632;51.718;19.446;2022-07-24T05:48:07;2.25;;;1.45;;
70970;SDS011;58632;51.718;19.446;2022-07-24T05:50:34;3.05;;;1.15;;
70970;SDS011;58632;51.718;19.446;2022-07-24T05:53:01;5.28;;;1.40;;
70970;SDS011;58632;51.718;19.446;2022-07-24T05:55:29;3.80;;;1.25;;
70970;SDS011;58632;51.718;19.446;2022-07-24T05:57:56;4.15;;;1.50;;
70970;SDS011;58632;51.718;19.446;2022-07-24T06:00:23;4.67;;;1.40;;
70970;SDS011;58632;51.718;19.446;2022-07-24T06:02:50;3.80;;;1.25;;
70970;SDS011;58632;51.718;19.446;2022-07-24T06:05:17;3.55;;;1.40;;
70970;SDS011;58632;51.718;19.446;2022-07-24T06:07:44;3.37;;;1.20;;
70970;SDS011;58632;51.718;19.446;2022-07-24T06:10:12;2.85;;;1.37;;
70970;SDS011;58632;51.718;19.446;2022-07-24T06:12:39;3.45;;;1.35;;
70970;SDS011;58632;51.718;19.446;2022-07-24T06:15:07;4.60;;;1.57;;
70970;SDS011;58632;51.718;19.446;2022-07-24T06:17:35;3.00;;;1.40;;
70970;SDS011;58632;51.718;19.446;2022-07-24T06:20:03;6.90;;;2.10;;
70970;SDS011;58632;51.718;19.446;2022-07-24T06:22:32;4.30;;;1.32;;
70970;SDS011;58632;51.718;19.446;2022-07-24T06:25:00;2.80;;;1.50;;
70970;SDS011;58632;51.718;19.446;2022-07-24T06:27:27;2.50;;;1.15;;
70970;SDS011;58632;51.718;19.446;2022-07-24T06:29:54;3.10;;;1.40;;
70970;SDS011;58632;51.718;19.446;2022-07-24T06:32:22;4.53;;;1.57;;
70970;SDS011;58632;51.718;19.446;2022-07-24T06:34:49;2.67;;;1.27;;
70970;SDS011;58632;51.718;19.446;2022-07-24T06:37:17;2.87;;;1.20;;
70970;SDS011;58632;51.718;19.446;2022-07-24T06:39:44;2.62;;;1.20;;
70970;SDS011;58632;51.718;19.446;2022-07-24T06:42:11;4.00;;;1.50;;
70970;SDS011;58632;51.718;19.446;2022-07-24T06:44:39;4.03;;;1.50;;
70970;SDS011;58632;51.718;19.446;2022-07-24T06:47:06;3.12;;;1.10;;
70970;SDS011;58632;51.718;19.446;2022-07-24T06:49:33;3.80;;;1.55;;
70970;SDS011;58632;51.718;19.446;2022-07-24T06:52:00;5.15;;;1.30;;
70970;SDS011;58632;51.718;19.446;2022-07-24T06:54:27;2.55;;;1.50;;
70970;SDS011;58632;51.718;19.446;2022-07-24T06:56:54;3.05;;;1.10;;
70970;SDS011;58632;51.718;19.446;2022-07-24T06:59:21;3.50;;;0.90;;
70970;SDS011;58632;51.718;19.446;2022-07-24T07:01:48;2.42;;;1.20;;
70970;SDS011;58632;51.718;19.446;2022-07-24T07:04:16;5.60;;;0.80;;
70970;SDS011;58632;51.718;19.446;2022-07-24T07:06:43;2.85;;;1.10;;
70970;SDS011;58632;51.718;19.446;2022-07-24T07:09:11;1.55;;;0.80;;
70970;SDS011;58632;51.718;19.446;2022-07-24T07:11:38;2.37;;;1.17;;
70970;SDS011;58632;51.718;19.446;2022-07-24T07:14:06;1.57;;;0.80;;
70970;SDS011;58632;51.718;19.446;2022-07-24T07:16:33;4.53;;;1.40;;
70970;SDS011;58632;51.718;19.446;2022-07-24T07:19:00;1.75;;;0.90;;
70970;SDS011;58632;51.718;19.446;2022-07-24T07:21:27;4.05;;;0.90;;
70970;SDS011;58632;51.718;19.446;2022-07-24T07:23:54;4.22;;;0.90;;
70970;SDS011;58632;51.718;19.446;2022-07-24T07:26:21;3.47;;;1.10;;
70970;SDS011;58632;51.718;19.446;2022-07-24T07:28:49;3.80;;;1.20;;
70970;SDS011;58632;51.718;19.446;2022-07-24T07:31:16;4.58;;;1.20;;
70970;SDS011;58632;51.718;19.446;2022-07-24T07:33:44;4.35;;;1.12;;
70970;SDS011;58632;51.718;19.446;2022-07-24T07:36:11;4.15;;;1.32;;
70970;SDS011;58632;51.718;19.446;2022-07-24T07:38:38;3.27;;;1.22;;
70970;SDS011;58632;51.718;19.446;2022-07-24T07:41:06;2.92;;;1.30;;
70970;SDS011;58632;51.718;19.446;2022-07-24T07:43:33;4.30;;;0.90;;
70970;SDS011;58632;51.718;19.446;2022-07-24T07:46:00;3.95;;;1.10;;
70970;SDS011;58632;51.718;19.446;2022-07-24T07:48:28;2.87;;;1.00;;
70970;SDS011;58632;51.718;19.446;2022-07-24T07:50:57;2.30;;;0.95;;
70970;SDS011;58632;51.718;19.446;2022-07-24T07:53:24;4.12;;;1.37;;
70970;SDS011;58632;51.718;19.446;2022-07-24T07:55:51;2.50;;;1.17;;
70970;SDS011;58632;51.718;19.446;2022-07-24T07:58:19;3.08;;;0.90;;
70970;SDS011;58632;51.718;19.446;2022-07-24T08:00:49;4.65;;;1.30;;
70970;SDS011;58632;51.718;19.446;2022-07-24T08:03:16;2.25;;;0.95;;
70970;SDS011;58632;51.718;19.446;2022-07-24T08:05:43;2.47;;;1.10;;
70970;SDS011;58632;51.718;19.446;2022-07-24T08:08:10;2.40;;;0.90;;
70970;SDS011;58632;51.718;19.446;2022-07-24T08:10:38;4.92;;;1.60;;
70970;SDS011;58632;51.718;19.446;2022-07-24T08:13:05;5.20;;;1.85;;
70970;SDS011;58632;51.718;19.446;2022-07-24T08:15:32;2.37;;;1.00;;
70970;SDS011;58632;51.718;19.446;2022-07-24T08:17:59;3.02;;;1.00;;
70970;SDS011;58632;51.718;19.446;2022-07-24T08:20:26;2.40;;;0.88;;
70970;SDS011;58632;51.718;19.446;2022-07-24T08:22:54;1.65;;;0.80;;
70970;SDS011;58632;51.718;19.446;2022-07-24T08:25:21;2.65;;;0.80;;
70970;SDS011;58632;51.718;19.446;2022-07-24T08:27:49;1.57;;;0.80;;
70970;SDS011;58632;51.718;19.446;2022-07-24T08:30:16;3.27;;;1.10;;
70970;SDS011;58632;51.718;19.446;2022-07-24T08:32:44;3.52;;;1.05;;
70970;SDS011;58632;51.718;19.446;2022-07-24T08:35:12;4.37;;;1.30;;
70970;SDS011;58632;51.718;19.446;2022-07-24T08:37:41;3.67;;;1.10;;
70970;SDS011;58632;51.718;19.446;2022-07-24T08:40:09;1.98;;;0.80;;
70970;SDS011;58632;51.718;19.446;2022-07-24T08:42:39;3.35;;;0.90;;
70970;SDS011;58632;51.718;19.446;2022-07-24T08:45:07;3.02;;;1.15;;
70970;SDS011;58632;51.718;19.446;2022-07-24T08:47:36;2.05;;;0.90;;
70970;SDS011;58632;51.718;19.446;2022-07-24T08:50:07;1.72;;;0.80;;
70970;SDS011;58632;51.718;19.446;2022-07-24T08:52:37;3.17;;;0.95;;
70970;SDS011;58632;51.718;19.446;2022-07-24T08:55:05;2.77;;;0.90;;
70970;SDS011;58632;51.718;19.446;2022-07-24T08:57:33;1.30;;;0.70;;
70970;SDS011;58632;51.718;19.446;2022-07-24T09:00:01;1.35;;;0.72;;
70970;SDS011;58632;51.718;19.446;2022-07-24T09:02:29;1.50;;;0.60;;
70970;SDS011;58632;51.718;19.446;2022-07-24T09:05:01;1.98;;;0.95;;
70970;SDS011;58632;51.718;19.446;2022-07-24T09:07:29;1.87;;;0.60;;
70970;SDS011;58632;51.718;19.446;2022-07-24T09:09:58;2.50;;;1.00;;
70970;SDS011;58632;51.718;19.446;2022-07-24T09:12:43;1.95;;;0.80;;
70970;SDS011;58632;51.718;19.446;2022-07-24T09:15:15;1.60;;;0.85;;
70970;SDS011;58632;51.718;19.446;2022-07-24T09:17:50;2.87;;;0.90;;
70970;SDS011;58632;51.718;19.446;2022-07-24T09:20:24;2.95;;;0.90;;
70970;SDS011;58632;51.718;19.446;2022-07-24T09:22:56;4.58;;;1.00;;
70970;SDS011;58632;51.718;19.446;2022-07-24T09:25:26;2.55;;;1.25;;
70970;SDS011;58632;51.718;19.446;2022-07-24T09:27:56;2.83;;;1.50;;
70970;SDS011;58632;51.718;19.446;2022-07-24T09:30:27;2.80;;;1.10;;
70970;SDS011;58632;51.718;19.446;2022-07-24T09:35:35;1.45;;;0.80;;
70970;SDS011;58632;51.718;19.446;2022-07-24T09:38:20;3.85;;;0.80;;
70970;SDS011;58632;51.718;19.446;2022-07-24T09:40:50;4.83;;;0.85;;
70970;SDS011;58632;51.718;19.446;2022-07-24T09:43:29;3.00;;;0.72;;
70970;SDS011;58632;51.718;19.446;2022-07-24T09:46:00;2.45;;;0.90;;
70970;SDS011;58632;51.718;19.446;2022-07-24T09:51:24;3.45;;;0.90;;
70970;SDS011;58632;51.718;19.446;2022-07-24T09:53:58;2.95;;;1.00;;
70970;SDS011;58632;51.718;19.446;2022-07-24T09:56:27;3.00;;;0.90;;
70970;SDS011;58632;51.718;19.446;2022-07-24T09:58:56;2.75;;;0.80;;
70970;SDS011;58632;51.718;19.446;2022-07-24T10:01:26;2.20;;;1.00;;
70970;SDS011;58632;51.718;19.446;2022-07-24T10:03:56;2.62;;;0.88;;
70970;SDS011;58632;51.718;19.446;2022-07-24T10:06:25;5.03;;;0.95;;
70970;SDS011;58632;51.718;19.446;2022-07-24T10:08:54;2.20;;;0.80;;
70970;SDS011;58632;51.718;19.446;2022-07-24T10:11:23;1.80;;;0.85;;
70970;SDS011;58632;51.718;19.446;2022-07-24T10:13:50;1.62;;;0.70;;
70970;SDS011;58632;51.718;19.446;2022-07-24T10:21:33;2.62;;;0.88;;
70970;SDS011;58632;51.718;19.446;2022-07-24T10:27:03;3.47;;;0.82;;
70970;SDS011;58632;51.718;19.446;2022-07-24T10:29:33;1.35;;;0.80;;
70970;SDS011;58632;51.718;19.446;2022-07-24T10:32:02;2.10;;;0.80;;
70970;SDS011;58632;51.718;19.446;2022-07-24T10:34:38;2.52;;;0.60;;
70970;SDS011;58632;51.718;19.446;2022-07-24T10:45:38;2.00;;;0.90;;
70970;SDS011;58632;51.718;19.446;2022-07-24T10:56:20;2.15;;;0.95;;
70970;SDS011;58632;51.718;19.446;2022-07-24T10:59:06;1.65;;;0.80;;
70970;SDS011;58632;51.718;19.446;2022-07-24T11:01:40;1.40;;;0.80;;
70970;SDS011;58632;51.718;19.446;2022-07-24T11:06:59;2.70;;;1.00;;
70970;SDS011;58632;51.718;19.446;2022-07-24T11:09:55;3.62;;;0.72;;
70970;SDS011;58632;51.718;19.446;2022-07-24T11:12:31;1.85;;;0.72;;
70970;SDS011;58632;51.718;19.446;2022-07-24T11:15:05;2.62;;;0.72;;
70970;SDS011;58632;51.718;19.446;2022-07-24T11:17:45;1.75;;;1.00;;
70970;SDS011;58632;51.718;19.446;2022-07-24T11:20:15;2.05;;;0.85;;
70970;SDS011;58632;51.718;19.446;2022-07-24T11:22:51;4.35;;;0.90;;
70970;SDS011;58632;51.718;19.446;2022-07-24T11:25:23;2.52;;;0.75;;
70970;SDS011;58632;51.718;19.446;2022-07-24T11:27:56;1.70;;;0.75;;
70970;SDS011;58632;51.718;19.446;2022-07-24T11:30:41;2.10;;;0.80;;
70970;SDS011;58632;51.718;19.446;2022-07-24T11:33:11;0.95;;;0.70;;
70970;SDS011;58632;51.718;19.446;2022-07-24T11:35:43;2.95;;;0.82;;
70970;SDS011;58632;51.718;19.446;2022-07-24T11:38:11;2.55;;;0.80;;
70970;SDS011;58632;51.718;19.446;2022-07-24T11:40:38;2.67;;;0.80;;
70970;SDS011;58632;51.718;19.446;2022-07-24T11:43:06;2.25;;;0.70;;
70970;SDS011;58632;51.718;19.446;2022-07-24T11:45:35;2.47;;;0.78;;
70970;SDS011;58632;51.718;19.446;2022-07-24T11:48:03;4.05;;;0.70;;
70970;SDS011;58632;51.718;19.446;2022-07-24T11:50:30;1.20;;;0.70;;
70970;SDS011;58632;51.718;19.446;2022-07-24T11:52:59;1.57;;;0.70;;
70970;SDS011;58632;51.718;19.446;2022-07-24T11:55:26;1.17;;;0.62;;
70970;SDS011;58632;51.718;19.446;2022-07-24T11:57:54;1.92;;;0.85;;
70970;SDS011;58632;51.718;19.446;2022-07-24T12:00:24;1.92;;;0.75;;
70970;SDS011;58632;51.718;19.446;2022-07-24T12:02:54;1.42;;;0.93;;
70970;SDS011;58632;51.718;19.446;2022-07-24T12:05:26;2.60;;;0.80;;
70970;SDS011;58632;51.718;19.446;2022-07-24T12:07:57;3.25;;;0.90;;
70970;SDS011;58632;51.718;19.446;2022-07-24T12:10:26;2.62;;;0.80;;
70970;SDS011;58632;51.718;19.446;2022-07-24T12:12:55;2.65;;;0.82;;
70970;SDS011;58632;51.718;19.446;2022-07-24T12:15:24;1.90;;;0.78;;
70970;SDS011;58632;51.718;19.446;2022-07-24T12:17:57;2.50;;;0.70;;
70970;SDS011;58632;51.718;19.446;2022-07-24T12:20:42;1.65;;;0.78;;
70970;SDS011;58632;51.718;19.446;2022-07-24T12:23:08;1.20;;;0.70;;
70970;SDS011;58632;51.718;19.446;2022-07-24T12:25:38;2.17;;;0.70;;
70970;SDS011;58632;51.718;19.446;2022-07-24T12:28:08;2.90;;;1.35;;
70970;SDS011;58632;51.718;19.446;2022-07-24T12:30:49;3.08;;;0.90;;
70970;SDS011;58632;51.718;19.446;2022-07-24T12:33:20;2.83;;;1.00;;
70970;SDS011;58632;51.718;19.446;2022-07-24T12:36:00;2.58;;;1.00;;
70970;SDS011;58632;51.718;19.446;2022-07-24T12:38:39;1.52;;;0.80;;
70970;SDS011;58632;51.718;19.446;2022-07-24T12:41:15;2.25;;;0.85;;
70970;SDS011;58632;51.718;19.446;2022-07-24T12:43:52;2.08;;;0.70;;
70970;SDS011;58632;51.718;19.446;2022-07-24T12:49:09;5.40;;;1.40;;
70970;SDS011;58632;51.718;19.446;2022-07-24T12:54:32;1.85;;;1.02;;
70970;SDS011;58632;51.718;19.446;2022-07-24T12:57:09;2.45;;;0.93;;
70970;SDS011;58632;51.718;19.446;2022-07-24T12:59:40;5.12;;;0.90;;
70970;SDS011;58632;51.718;19.446;2022-07-24T13:02:17;1.75;;;0.98;;
70970;SDS011;58632;51.718;19.446;2022-07-24T13:04:48;2.75;;;0.93;;
70970;SDS011;58632;51.718;19.446;2022-07-24T13:07:20;3.30;;;1.05;;
70970;SDS011;58632;51.718;19.446;2022-07-24T13:09:49;3.25;;;0.88;;
70970;SDS011;58632;51.718;19.446;2022-07-24T13:12:18;1.95;;;0.90;;
70970;SDS011;58632;51.718;19.446;2022-07-24T13:14:47;4.40;;;1.20;;
70970;SDS011;58632;51.718;19.446;2022-07-24T13:17:16;1.47;;;0.90;;
70970;SDS011;58632;51.718;19.446;2022-07-24T13:19:45;1.95;;;0.98;;
70970;SDS011;58632;51.718;19.446;2022-07-24T13:22:16;2.42;;;0.93;;
70970;SDS011;58632;51.718;19.446;2022-07-24T13:24:45;3.92;;;1.20;;
70970;SDS011;58632;51.718;19.446;2022-07-24T13:27:12;3.67;;;1.45;;
70970;SDS011;58632;51.718;19.446;2022-07-24T13:29:41;1.87;;;1.00;;
70970;SDS011;58632;51.718;19.446;2022-07-24T13:32:09;2.27;;;1.00;;
70970;SDS011;58632;51.718;19.446;2022-07-24T13:34:37;4.72;;;1.05;;
70970;SDS011;58632;51.718;19.446;2022-07-24T13:37:04;2.15;;;0.95;;
70970;SDS011;58632;51.718;19.446;2022-07-24T13:39:33;3.00;;;1.00;;
70970;SDS011;58632;51.718;19.446;2022-07-24T13:42:02;1.82;;;1.10;;
70970;SDS011;58632;51.718;19.446;2022-07-24T13:44:29;3.60;;;1.20;;
70970;SDS011;58632;51.718;19.446;2022-07-24T13:46:57;2.22;;;0.90;;
70970;SDS011;58632;51.718;19.446;2022-07-24T13:49:24;1.35;;;0.90;;
70970;SDS011;58632;51.718;19.446;2022-07-24T13:51:51;1.87;;;1.00;;
70970;SDS011;58632;51.718;19.446;2022-07-24T13:54:20;2.77;;;1.07;;
70970;SDS011;58632;51.718;19.446;2022-07-24T13:56:47;3.25;;;1.10;;
70970;SDS011;58632;51.718;19.446;2022-07-24T13:59:14;1.95;;;0.90;;
70970;SDS011;58632;51.718;19.446;2022-07-24T14:01:41;2.05;;;0.90;;
70970;SDS011;58632;51.718;19.446;2022-07-24T14:04:08;1.90;;;0.98;;
70970;SDS011;58632;51.718;19.446;2022-07-24T14:06:36;2.25;;;0.70;;
70970;SDS011;58632;51.718;19.446;2022-07-24T14:09:04;2.47;;;1.00;;
70970;SDS011;58632;51.718;19.446;2022-07-24T14:11:31;3.58;;;0.93;;
70970;SDS011;58632;51.718;19.446;2022-07-24T14:14:00;2.85;;;1.07;;
70970;SDS011;58632;51.718;19.446;2022-07-24T14:16:27;1.57;;;0.95;;
70970;SDS011;58632;51.718;19.446;2022-07-24T14:18:54;1.37;;;0.95;;
70970;SDS011;58632;51.718;19.446;2022-07-24T14:21:21;1.77;;;0.80;;
70970;SDS011;58632;51.718;19.446;2022-07-24T14:23:48;1.15;;;0.70;;
70970;SDS011;58632;51.718;19.446;2022-07-24T14:26:16;2.62;;;1.40;;
70970;SDS011;58632;51.718;19.446;2022-07-24T14:28:43;3.62;;;1.50;;
70970;SDS011;58632;51.718;19.446;2022-07-24T14:31:10;17.05;;;11.20;;
70970;SDS011;58632;51.718;19.446;2022-07-24T14:33:39;2.02;;;1.37;;
70970;SDS011;58632;51.718;19.446;2022-07-24T14:36:07;6.15;;;3.20;;
70970;SDS011;58632;51.718;19.446;2022-07-24T14:38:35;1.85;;;0.82;;
70970;SDS011;58632;51.718;19.446;2022-07-24T14:41:02;2.75;;;1.25;;
70970;SDS011;58632;51.718;19.446;2022-07-24T14:43:29;2.22;;;1.30;;
70970;SDS011;58632;51.718;19.446;2022-07-24T14:45:56;2.15;;;0.90;;
70970;SDS011;58632;51.718;19.446;2022-07-24T14:48:24;2.05;;;0.90;;
70970;SDS011;58632;51.718;19.446;2022-07-24T14:50:52;4.10;;;1.05;;
70970;SDS011;58632;51.718;19.446;2022-07-24T14:53:20;2.35;;;0.98;;
70970;SDS011;58632;51.718;19.446;2022-07-24T14:55:47;3.40;;;0.95;;
70970;SDS011;58632;51.718;19.446;2022-07-24T14:58:14;1.50;;;0.90;;
70970;SDS011;58632;51.718;19.446;2022-07-24T15:00:41;1.75;;;1.10;;
70970;SDS011;58632;51.718;19.446;2022-07-24T15:03:08;2.75;;;0.95;;
70970;SDS011;58632;51.718;19.446;2022-07-24T15:05:36;3.25;;;0.90;;
70970;SDS011;58632;51.718;19.446;2022-07-24T15:08:03;2.17;;;0.98;;
70970;SDS011;58632;51.718;19.446;2022-07-24T15:10:31;2.27;;;0.90;;
70970;SDS011;58632;51.718;19.446;2022-07-24T15:12:58;1.98;;;0.90;;
70970;SDS011;58632;51.718;19.446;2022-07-24T15:15:25;2.47;;;1.20;;
70970;SDS011;58632;51.718;19.446;2022-07-24T15:17:53;5.05;;;1.10;;
70970;SDS011;58632;51.718;19.446;2022-07-24T15:20:20;1.05;;;0.70;;